sensor_id;sensor_type;location;lat;lon;timestamp;temperature;humidity
41756;DHT22;27435;48.480;9.258;2022-10-16T00:00:44;15.80;99.00
41756;DHT22;27435;48.480;9.258;2022-10-16T00:03:10;15.80;99.00
41756;DHT22;27435;48.480;9.258;2022-10-16T00:05:42;15.80;99.00
41756;DHT22;27435;48.480;9.258;2022-10-16T00:08:09;15.80;99.00
41756;DHT22;27435;48.480;9.258;2022-10-16T00:10:35;15.60;99.00
41756;DHT22;27435;48.480;9.258;2022-10-16T00:13:01;15.50;99.00
41756;DHT22;27435;48.480;9.258;2022-10-16T00:15:26;15.50;99.00
41756;DHT22;27435;48.480;9.258;2022-10-16T00:17:52;15.50;99.00
41756;DHT22;27435;48.480;9.258;2022-10-16T00:20:18;15.40;99.00
41756;DHT22;27435;48.480;9.258;2022-10-16T00:22:43;15.30;99.00
41756;DHT22;27435;48.480;9.258;2022-10-16T00:25:09;15.20;99.00
41756;DHT22;27435;48.480;9.258;2022-10-16T00:27:35;15.20;99.00
41756;DHT22;27435;48.480;9.258;2022-10-16T00:30:00;15.20;99.00
41756;DHT22;27435;48.480;9.258;2022-10-16T00:32:26;15.10;99.00
41756;DHT22;27435;48.480;9.258;2022-10-16T00:34:52;15.10;99.00
41756;DHT22;27435;48.480;9.258;2022-10-16T00:37:20;15.10;99.00
41756;DHT22;27435;48.480;9.258;2022-10-16T00:39:46;15.10;99.00
41756;DHT22;27435;48.480;9.258;2022-10-16T00:42:16;15.10;99.00
41756;DHT22;27435;48.480;9.258;2022-10-16T00:47:15;15.10;99.00
41756;DHT22;27435;48.480;9.258;2022-10-16T00:49:43;15.10;99.00
41756;DHT22;27435;48.480;9.258;2022-10-16T00:52:09;15.10;99.00
41756;DHT22;27435;48.480;9.258;2022-10-16T00:54:35;15.10;99.00
41756;DHT22;27435;48.480;9.258;2022-10-16T00:57:04;15.10;99.00
41756;DHT22;27435;48.480;9.258;2022-10-16T00:59:33;15.10;99.00
41756;DHT22;27435;48.480;9.258;2022-10-16T01:02:00;15.10;99.00
41756;DHT22;27435;48.480;9.258;2022-10-16T01:04:26;15.20;99.00
41756;DHT22;27435;48.480;9.258;2022-10-16T01:06:59;15.30;99.00
41756;DHT22;27435;48.480;9.258;2022-10-16T01:12:16;15.20;99.00
41756;DHT22;27435;48.480;9.258;2022-10-16T01:14:58;15.30;99.00
41756;DHT22;27435;48.480;9.258;2022-10-16T01:17:34;15.30;99.00
41756;DHT22;27435;48.480;9.258;2022-10-16T01:22:55;15.40;99.00
41756;DHT22;27435;48.480;9.258;2022-10-16T01:28:27;15.50;99.00
41756;DHT22;27435;48.480;9.258;2022-10-16T01:30:56;15.50;99.00
41756;DHT22;27435;48.480;9.258;2022-10-16T01:33:36;15.60;99.00
41756;DHT22;27435;48.480;9.258;2022-10-16T01:36:11;15.60;99.00
41756;DHT22;27435;48.480;9.258;2022-10-16T01:38:39;15.60;99.00
41756;DHT22;27435;48.480;9.258;2022-10-16T01:41:14;15.70;99.00
41756;DHT22;27435;48.480;9.258;2022-10-16T01:43:50;15.60;99.00
41756;DHT22;27435;48.480;9.258;2022-10-16T01:46:20;15.70;99.00
41756;DHT22;27435;48.480;9.258;2022-10-16T01:48:47;15.70;99.00
41756;DHT22;27435;48.480;9.258;2022-10-16T01:51:14;15.80;99.00
41756;DHT22;27435;48.480;9.258;2022-10-16T01:53:43;15.80;99.00
41756;DHT22;27435;48.480;9.258;2022-10-16T01:56:12;15.70;99.00
41756;DHT22;27435;48.480;9.258;2022-10-16T01:58:42;15.60;99.00
41756;DHT22;27435;48.480;9.258;2022-10-16T02:01:11;15.70;99.00
41756;DHT22;27435;48.480;9.258;2022-10-16T02:03:40;15.80;99.00
41756;DHT22;27435;48.480;9.258;2022-10-16T02:06:07;15.80;99.00
41756;DHT22;27435;48.480;9.258;2022-10-16T02:08:35;15.80;99.00
41756;DHT22;27435;48.480;9.258;2022-10-16T02:11:01;15.90;99.00
41756;DHT22;27435;48.480;9.258;2022-10-16T02:13:29;16.00;99.00
41756;DHT22;27435;48.480;9.258;2022-10-16T02:15:56;16.10;99.00
41756;DHT22;27435;48.480;9.258;2022-10-16T02:18:22;16.00;99.00
41756;DHT22;27435;48.480;9.258;2022-10-16T02:20:53;16.00;99.00
41756;DHT22;27435;48.480;9.258;2022-10-16T02:23:28;16.10;99.00
41756;DHT22;27435;48.480;9.258;2022-10-16T02:25:56;16.10;99.00
41756;DHT22;27435;48.480;9.258;2022-10-16T02:28:34;16.10;99.00
41756;DHT22;27435;48.480;9.258;2022-10-16T02:31:05;16.20;99.00
41756;DHT22;27435;48.480;9.258;2022-10-16T02:33:32;16.30;99.00
41756;DHT22;27435;48.480;9.258;2022-10-16T02:35:59;16.30;99.00
41756;DHT22;27435;48.480;9.258;2022-10-16T02:38:25;16.20;99.00
41756;DHT22;27435;48.480;9.258;2022-10-16T02:40:51;16.10;99.00
41756;DHT22;27435;48.480;9.258;2022-10-16T02:43:17;16.10;99.00
41756;DHT22;27435;48.480;9.258;2022-10-16T02:45:43;16.10;99.00
41756;DHT22;27435;48.480;9.258;2022-10-16T02:48:09;16.00;99.00
41756;DHT22;27435;48.480;9.258;2022-10-16T02:50:35;16.00;99.00
41756;DHT22;27435;48.480;9.258;2022-10-16T02:53:01;16.00;99.00
41756;DHT22;27435;48.480;9.258;2022-10-16T02:55:26;16.10;99.00
41756;DHT22;27435;48.480;9.258;2022-10-16T02:57:53;16.00;99.00
41756;DHT22;27435;48.480;9.258;2022-10-16T03:00:20;16.00;99.00
41756;DHT22;27435;48.480;9.258;2022-10-16T03:02:46;15.90;99.00
41756;DHT22;27435;48.480;9.258;2022-10-16T03:05:13;15.90;99.00
41756;DHT22;27435;48.480;9.258;2022-10-16T03:07:38;16.00;99.00
41756;DHT22;27435;48.480;9.258;2022-10-16T03:10:05;15.90;99.00
41756;DHT22;27435;48.480;9.258;2022-10-16T03:12:30;16.00;99.00
41756;DHT22;27435;48.480;9.258;2022-10-16T03:14:57;15.90;99.00
41756;DHT22;27435;48.480;9.258;2022-10-16T03:17:23;15.90;99.00
41756;DHT22;27435;48.480;9.258;2022-10-16T03:19:49;16.00;99.00
41756;DHT22;27435;48.480;9.258;2022-10-16T03:22:14;16.00;99.00
41756;DHT22;27435;48.480;9.258;2022-10-16T03:24:40;15.90;99.00
41756;DHT22;27435;48.480;9.258;2022-10-16T03:27:06;15.90;99.00
41756;DHT22;27435;48.480;9.258;2022-10-16T03:29:32;15.80;99.00
41756;DHT22;27435;48.480;9.258;2022-10-16T03:31:58;15.90;99.00
41756;DHT22;27435;48.480;9.258;2022-10-16T03:34:24;15.80;99.00
41756;DHT22;27435;48.480;9.258;2022-10-16T03:36:49;15.90;99.00
41756;DHT22;27435;48.480;9.258;2022-10-16T03:39:15;15.90;99.00
41756;DHT22;27435;48.480;9.258;2022-10-16T03:41:41;15.90;99.00
41756;DHT22;27435;48.480;9.258;2022-10-16T03:44:06;15.90;99.00
41756;DHT22;27435;48.480;9.258;2022-10-16T03:46:32;15.90;99.00
41756;DHT22;27435;48.480;9.258;2022-10-16T03:48:58;15.90;99.00
41756;DHT22;27435;48.480;9.258;2022-10-16T03:51:23;15.90;99.00
41756;DHT22;27435;48.480;9.258;2022-10-16T03:53:49;15.90;99.00
41756;DHT22;27435;48.480;9.258;2022-10-16T03:56:14;16.00;99.00
41756;DHT22;27435;48.480;9.258;2022-10-16T03:58:40;16.00;99.00
41756;DHT22;27435;48.480;9.258;2022-10-16T04:01:06;16.00;99.00
41756;DHT22;27435;48.480;9.258;2022-10-16T04:03:31;16.10;99.00
41756;DHT22;27435;48.480;9.258;2022-10-16T04:05:57;16.10;99.00
41756;DHT22;27435;48.480;9.258;2022-10-16T04:08:23;16.10;99.00
41756;DHT22;27435;48.480;9.258;2022-10-16T04:10:48;16.00;99.00
41756;DHT22;27435;48.480;9.258;2022-10-16T04:13:14;16.00;99.00
41756;DHT22;27435;48.480;9.258;2022-10-16T04:15:40;16.10;99.00
41756;DHT22;27435;48.480;9.258;2022-10-16T04:18:06;16.10;99.00
41756;DHT22;27435;48.480;9.258;2022-10-16T04:20:32;16.10;99.00
41756;DHT22;27435;48.480;9.258;2022-10-16T04:22:58;16.20;99.00
41756;DHT22;27435;48.480;9.258;2022-10-16T04:25:23;16.20;99.00
41756;DHT22;27435;48.480;9.258;2022-10-16T04:27:49;16.20;99.00
41756;DHT22;27435;48.480;9.258;2022-10-16T04:30:15;16.20;99.00
41756;DHT22;27435;48.480;9.258;2022-10-16T04:32:41;16.10;99.00
41756;DHT22;27435;48.480;9.258;2022-10-16T04:35:07;16.20;99.00
41756;DHT22;27435;48.480;9.258;2022-10-16T04:37:32;16.30;99.00
41756;DHT22;27435;48.480;9.258;2022-10-16T04:39:58;16.20;99.00
41756;DHT22;27435;48.480;9.258;2022-10-16T04:42:23;16.20;99.00
41756;DHT22;27435;48.480;9.258;2022-10-16T04:44:49;16.30;99.00
41756;DHT22;27435;48.480;9.258;2022-10-16T04:47:15;16.20;99.00
41756;DHT22;27435;48.480;9.258;2022-10-16T04:49:40;16.20;99.00
41756;DHT22;27435;48.480;9.258;2022-10-16T04:52:06;16.30;99.00
41756;DHT22;27435;48.480;9.258;2022-10-16T04:54:32;16.40;99.00
41756;DHT22;27435;48.480;9.258;2022-10-16T04:56:57;16.40;99.00
41756;DHT22;27435;48.480;9.258;2022-10-16T04:59:23;16.40;99.00
41756;DHT22;27435;48.480;9.258;2022-10-16T05:01:49;16.40;99.00
41756;DHT22;27435;48.480;9.258;2022-10-16T05:04:15;16.40;99.00
41756;DHT22;27435;48.480;9.258;2022-10-16T05:06:41;16.40;99.00
41756;DHT22;27435;48.480;9.258;2022-10-16T05:09:08;16.40;99.00
41756;DHT22;27435;48.480;9.258;2022-10-16T05:11:34;16.40;99.00
41756;DHT22;27435;48.480;9.258;2022-10-16T05:14:00;16.40;99.00
41756;DHT22;27435;48.480;9.258;2022-10-16T05:16:26;16.30;99.00
41756;DHT22;27435;48.480;9.258;2022-10-16T05:18:52;16.30;99.00
41756;DHT22;27435;48.480;9.258;2022-10-16T05:21:18;16.30;99.00
41756;DHT22;27435;48.480;9.258;2022-10-16T05:23:44;16.20;99.00
41756;DHT22;27435;48.480;9.258;2022-10-16T05:26:09;16.30;99.00
41756;DHT22;27435;48.480;9.258;2022-10-16T05:28:35;16.30;99.00
41756;DHT22;27435;48.480;9.258;2022-10-16T05:31:05;16.30;99.00
41756;DHT22;27435;48.480;9.258;2022-10-16T05:33:31;16.20;99.00
41756;DHT22;27435;48.480;9.258;2022-10-16T05:35:57;16.20;99.00
41756;DHT22;27435;48.480;9.258;2022-10-16T05:38:25;16.10;99.00
41756;DHT22;27435;48.480;9.258;2022-10-16T05:40:51;16.10;99.00
41756;DHT22;27435;48.480;9.258;2022-10-16T05:43:20;16.10;99.00
41756;DHT22;27435;48.480;9.258;2022-10-16T05:45:55;16.20;99.00
41756;DHT22;27435;48.480;9.258;2022-10-16T05:48:21;16.10;99.00
41756;DHT22;27435;48.480;9.258;2022-10-16T05:50:47;16.10;99.00
41756;DHT22;27435;48.480;9.258;2022-10-16T05:53:13;16.10;99.00
41756;DHT22;27435;48.480;9.258;2022-10-16T05:55:38;16.00;99.00
41756;DHT22;27435;48.480;9.258;2022-10-16T05:58:04;16.10;99.00
41756;DHT22;27435;48.480;9.258;2022-10-16T06:00:30;16.10;99.00
41756;DHT22;27435;48.480;9.258;2022-10-16T06:02:55;16.10;99.00
41756;DHT22;27435;48.480;9.258;2022-10-16T06:05:21;16.10;99.00
41756;DHT22;27435;48.480;9.258;2022-10-16T06:07:46;16.20;99.00
41756;DHT22;27435;48.480;9.258;2022-10-16T06:10:12;16.30;99.00
41756;DHT22;27435;48.480;9.258;2022-10-16T06:12:37;16.40;99.00
41756;DHT22;27435;48.480;9.258;2022-10-16T06:15:03;16.40;99.00
41756;DHT22;27435;48.480;9.258;2022-10-16T06:17:29;16.40;99.00
41756;DHT22;27435;48.480;9.258;2022-10-16T06:19:55;16.40;99.00
41756;DHT22;27435;48.480;9.258;2022-10-16T06:22:20;16.50;99.00
41756;DHT22;27435;48.480;9.258;2022-10-16T06:24:46;16.50;99.00
41756;DHT22;27435;48.480;9.258;2022-10-16T06:27:12;16.60;99.00
41756;DHT22;27435;48.480;9.258;2022-10-16T06:29:38;16.70;99.00
41756;DHT22;27435;48.480;9.258;2022-10-16T06:32:04;16.60;99.00
41756;DHT22;27435;48.480;9.258;2022-10-16T06:34:29;16.60;99.00
41756;DHT22;27435;48.480;9.258;2022-10-16T06:36:55;16.60;99.00
41756;DHT22;27435;48.480;9.258;2022-10-16T06:39:21;16.60;99.00
41756;DHT22;27435;48.480;9.258;2022-10-16T06:41:46;16.70;99.00
41756;DHT22;27435;48.480;9.258;2022-10-16T06:44:12;16.80;99.00
41756;DHT22;27435;48.480;9.258;2022-10-16T06:46:37;16.70;99.00
41756;DHT22;27435;48.480;9.258;2022-10-16T06:49:03;16.80;99.00
41756;DHT22;27435;48.480;9.258;2022-10-16T06:51:29;16.90;99.00
41756;DHT22;27435;48.480;9.258;2022-10-16T06:53:56;17.20;99.00
41756;DHT22;27435;48.480;9.258;2022-10-16T06:56:27;17.30;99.00
41756;DHT22;27435;48.480;9.258;2022-10-16T06:58:53;17.50;99.00
41756;DHT22;27435;48.480;9.258;2022-10-16T07:01:21;17.60;99.00
41756;DHT22;27435;48.480;9.258;2022-10-16T07:03:47;17.70;99.00
41756;DHT22;27435;48.480;9.258;2022-10-16T07:06:15;17.70;99.00
41756;DHT22;27435;48.480;9.258;2022-10-16T07:08:43;17.80;99.00
41756;DHT22;27435;48.480;9.258;2022-10-16T07:11:11;17.80;99.00
41756;DHT22;27435;48.480;9.258;2022-10-16T07:13:38;17.80;99.00
41756;DHT22;27435;48.480;9.258;2022-10-16T07:16:12;17.80;99.00
41756;DHT22;27435;48.480;9.258;2022-10-16T07:18:38;17.80;99.00
41756;DHT22;27435;48.480;9.258;2022-10-16T07:21:07;17.80;99.00
41756;DHT22;27435;48.480;9.258;2022-10-16T07:23:33;17.90;99.00
41756;DHT22;27435;48.480;9.258;2022-10-16T07:25:59;18.00;99.00
41756;DHT22;27435;48.480;9.258;2022-10-16T07:28:25;18.10;99.00
41756;DHT22;27435;48.480;9.258;2022-10-16T07:30:51;18.20;98.50
41756;DHT22;27435;48.480;9.258;2022-10-16T07:33:17;18.20;99.00
41756;DHT22;27435;48.480;9.258;2022-10-16T07:35:54;18.20;98.80
41756;DHT22;27435;48.480;9.258;2022-10-16T07:38:20;18.30;99.00
41756;DHT22;27435;48.480;9.258;2022-10-16T07:40:46;18.20;98.90
41756;DHT22;27435;48.480;9.258;2022-10-16T07:43:12;18.00;99.00
41756;DHT22;27435;48.480;9.258;2022-10-16T07:45:46;18.10;99.00
41756;DHT22;27435;48.480;9.258;2022-10-16T07:48:12;18.20;99.00
41756;DHT22;27435;48.480;9.258;2022-10-16T07:50:38;18.30;98.40
41756;DHT22;27435;48.480;9.258;2022-10-16T07:53:04;18.30;98.80
41756;DHT22;27435;48.480;9.258;2022-10-16T07:55:29;18.40;98.20
41756;DHT22;27435;48.480;9.258;2022-10-16T07:57:55;18.40;98.90
41756;DHT22;27435;48.480;9.258;2022-10-16T08:00:20;18.70;97.40
41756;DHT22;27435;48.480;9.258;2022-10-16T08:02:46;18.90;96.40
41756;DHT22;27435;48.480;9.258;2022-10-16T08:05:12;19.10;96.10
41756;DHT22;27435;48.480;9.258;2022-10-16T08:07:37;19.20;95.20
41756;DHT22;27435;48.480;9.258;2022-10-16T08:10:03;19.40;94.60
41756;DHT22;27435;48.480;9.258;2022-10-16T08:12:29;19.40;94.50
41756;DHT22;27435;48.480;9.258;2022-10-16T08:14:55;19.60;93.10
41756;DHT22;27435;48.480;9.258;2022-10-16T08:17:20;19.60;92.20
41756;DHT22;27435;48.480;9.258;2022-10-16T08:19:47;19.80;91.10
41756;DHT22;27435;48.480;9.258;2022-10-16T08:22:13;19.80;91.50
41756;DHT22;27435;48.480;9.258;2022-10-16T08:24:39;19.90;91.10
41756;DHT22;27435;48.480;9.258;2022-10-16T08:27:05;20.00;91.00
41756;DHT22;27435;48.480;9.258;2022-10-16T08:29:32;20.10;89.70
41756;DHT22;27435;48.480;9.258;2022-10-16T08:31:57;20.20;88.40
41756;DHT22;27435;48.480;9.258;2022-10-16T08:34:23;20.30;88.50
41756;DHT22;27435;48.480;9.258;2022-10-16T08:36:49;20.60;88.50
41756;DHT22;27435;48.480;9.258;2022-10-16T08:39:15;20.90;87.50
41756;DHT22;27435;48.480;9.258;2022-10-16T08:41:57;21.00;86.00
41756;DHT22;27435;48.480;9.258;2022-10-16T08:44:46;21.00;86.50
41756;DHT22;27435;48.480;9.258;2022-10-16T08:47:19;21.30;86.00
41756;DHT22;27435;48.480;9.258;2022-10-16T08:50:05;21.60;83.60
41756;DHT22;27435;48.480;9.258;2022-10-16T08:52:35;21.70;82.60
41756;DHT22;27435;48.480;9.258;2022-10-16T08:55:04;21.90;82.90
41756;DHT22;27435;48.480;9.258;2022-10-16T08:57:30;22.00;82.40
41756;DHT22;27435;48.480;9.258;2022-10-16T09:00:00;22.00;81.70
41756;DHT22;27435;48.480;9.258;2022-10-16T09:02:49;22.00;81.70
41756;DHT22;27435;48.480;9.258;2022-10-16T09:05:22;21.80;82.80
41756;DHT22;27435;48.480;9.258;2022-10-16T09:07:58;21.70;83.40
41756;DHT22;27435;48.480;9.258;2022-10-16T09:13:29;21.60;84.00
41756;DHT22;27435;48.480;9.258;2022-10-16T09:16:22;21.60;83.40
41756;DHT22;27435;48.480;9.258;2022-10-16T09:19:30;21.60;84.50
41756;DHT22;27435;48.480;9.258;2022-10-16T09:21:59;21.40;84.50
41756;DHT22;27435;48.480;9.258;2022-10-16T09:24:27;21.30;85.10
41756;DHT22;27435;48.480;9.258;2022-10-16T09:26:52;21.10;86.30
41756;DHT22;27435;48.480;9.258;2022-10-16T09:29:20;21.00;86.40
41756;DHT22;27435;48.480;9.258;2022-10-16T09:31:47;20.90;87.10
41756;DHT22;27435;48.480;9.258;2022-10-16T09:36:49;20.80;87.50
41756;DHT22;27435;48.480;9.258;2022-10-16T09:39:15;20.80;87.30
41756;DHT22;27435;48.480;9.258;2022-10-16T09:41:43;20.90;87.30
41756;DHT22;27435;48.480;9.258;2022-10-16T09:44:28;20.90;87.60
41756;DHT22;27435;48.480;9.258;2022-10-16T09:47:21;21.00;87.20
41756;DHT22;27435;48.480;9.258;2022-10-16T09:52:19;21.20;86.80
41756;DHT22;27435;48.480;9.258;2022-10-16T09:54:56;21.20;86.10
41756;DHT22;27435;48.480;9.258;2022-10-16T09:57:23;21.30;85.80
41756;DHT22;27435;48.480;9.258;2022-10-16T09:59:50;21.30;85.90
41756;DHT22;27435;48.480;9.258;2022-10-16T10:02:19;21.30;86.10
41756;DHT22;27435;48.480;9.258;2022-10-16T10:04:51;21.40;86.00
41756;DHT22;27435;48.480;9.258;2022-10-16T10:07:24;21.40;86.30
41756;DHT22;27435;48.480;9.258;2022-10-16T10:09:51;21.10;86.00
41756;DHT22;27435;48.480;9.258;2022-10-16T10:12:20;21.10;87.10
41756;DHT22;27435;48.480;9.258;2022-10-16T10:14:51;21.30;85.70
41756;DHT22;27435;48.480;9.258;2022-10-16T10:17:25;21.30;86.20
41756;DHT22;27435;48.480;9.258;2022-10-16T10:19:55;21.30;85.30
41756;DHT22;27435;48.480;9.258;2022-10-16T10:30:44;21.20;85.70
41756;DHT22;27435;48.480;9.258;2022-10-16T10:39:25;21.40;84.00
41756;DHT22;27435;48.480;9.258;2022-10-16T11:06:07;22.40;75.00
41756;DHT22;27435;48.480;9.258;2022-10-16T11:08:56;22.10;75.10
41756;DHT22;27435;48.480;9.258;2022-10-16T11:11:40;22.10;76.20
41756;DHT22;27435;48.480;9.258;2022-10-16T11:14:28;22.20;74.30
41756;DHT22;27435;48.480;9.258;2022-10-16T11:16:59;22.30;73.80
41756;DHT22;27435;48.480;9.258;2022-10-16T11:19:56;22.30;73.50
41756;DHT22;27435;48.480;9.258;2022-10-16T11:22:32;22.40;73.30
41756;DHT22;27435;48.480;9.258;2022-10-16T11:25:16;22.50;73.60
41756;DHT22;27435;48.480;9.258;2022-10-16T11:28:01;22.40;73.40
41756;DHT22;27435;48.480;9.258;2022-10-16T11:30:30;22.40;73.20
41756;DHT22;27435;48.480;9.258;2022-10-16T11:35:51;22.30;70.10
41756;DHT22;27435;48.480;9.258;2022-10-16T11:41:08;22.40;68.90
41756;DHT22;27435;48.480;9.258;2022-10-16T11:43:40;22.60;68.80
41756;DHT22;27435;48.480;9.258;2022-10-16T11:46:17;22.40;67.90
41756;DHT22;27435;48.480;9.258;2022-10-16T11:51:19;22.60;70.30
41756;DHT22;27435;48.480;9.258;2022-10-16T11:56:32;22.90;67.60
41756;DHT22;27435;48.480;9.258;2022-10-16T11:59:33;23.00;67.80
41756;DHT22;27435;48.480;9.258;2022-10-16T12:04:46;23.40;67.10
41756;DHT22;27435;48.480;9.258;2022-10-16T12:07:17;23.30;67.90
41756;DHT22;27435;48.480;9.258;2022-10-16T12:09:44;23.10;67.80
41756;DHT22;27435;48.480;9.258;2022-10-16T12:12:39;23.10;66.70
41756;DHT22;27435;48.480;9.258;2022-10-16T12:15:34;23.20;68.70
41756;DHT22;27435;48.480;9.258;2022-10-16T12:17:59;23.30;68.50
41756;DHT22;27435;48.480;9.258;2022-10-16T12:20:34;23.40;68.70
41756;DHT22;27435;48.480;9.258;2022-10-16T12:23:03;23.50;67.80
41756;DHT22;27435;48.480;9.258;2022-10-16T12:28:17;23.40;68.60
41756;DHT22;27435;48.480;9.258;2022-10-16T12:31:03;23.50;67.00
41756;DHT22;27435;48.480;9.258;2022-10-16T12:33:37;23.40;66.50
41756;DHT22;27435;48.480;9.258;2022-10-16T12:36:25;23.40;67.80
41756;DHT22;27435;48.480;9.258;2022-10-16T12:38:52;23.00;68.40
41756;DHT22;27435;48.480;9.258;2022-10-16T12:41:35;23.40;67.90
41756;DHT22;27435;48.480;9.258;2022-10-16T12:44:03;23.70;67.80
41756;DHT22;27435;48.480;9.258;2022-10-16T12:46:34;23.90;67.30
41756;DHT22;27435;48.480;9.258;2022-10-16T12:51:38;23.80;67.30
41756;DHT22;27435;48.480;9.258;2022-10-16T12:54:47;24.10;66.70
41756;DHT22;27435;48.480;9.258;2022-10-16T12:59:48;24.40;66.20
41756;DHT22;27435;48.480;9.258;2022-10-16T13:10:51;24.70;65.40
41756;DHT22;27435;48.480;9.258;2022-10-16T13:19:52;25.90;61.90
41756;DHT22;27435;48.480;9.258;2022-10-16T13:22:22;26.00;63.30
41756;DHT22;27435;48.480;9.258;2022-10-16T13:27:40;26.30;62.20
41756;DHT22;27435;48.480;9.258;2022-10-16T13:30:17;26.30;61.10
41756;DHT22;27435;48.480;9.258;2022-10-16T13:32:48;26.40;61.30
41756;DHT22;27435;48.480;9.258;2022-10-16T13:35:27;26.40;60.90
41756;DHT22;27435;48.480;9.258;2022-10-16T13:38:12;26.40;61.70
41756;DHT22;27435;48.480;9.258;2022-10-16T13:40:58;26.30;62.00
41756;DHT22;27435;48.480;9.258;2022-10-16T13:46:05;26.10;61.80
41756;DHT22;27435;48.480;9.258;2022-10-16T13:48:33;25.80;62.70
41756;DHT22;27435;48.480;9.258;2022-10-16T13:53:31;25.40;62.90
41756;DHT22;27435;48.480;9.258;2022-10-16T13:55:57;25.40;63.70
41756;DHT22;27435;48.480;9.258;2022-10-16T13:58:23;25.60;62.60
41756;DHT22;27435;48.480;9.258;2022-10-16T14:01:03;25.30;64.40
41756;DHT22;27435;48.480;9.258;2022-10-16T14:03:32;25.70;63.40
41756;DHT22;27435;48.480;9.258;2022-10-16T14:06:01;25.80;63.40
41756;DHT22;27435;48.480;9.258;2022-10-16T14:08:29;25.90;63.60
41756;DHT22;27435;48.480;9.258;2022-10-16T14:11:00;26.20;62.30
41756;DHT22;27435;48.480;9.258;2022-10-16T14:13:34;26.00;61.70
41756;DHT22;27435;48.480;9.258;2022-10-16T14:16:02;26.00;62.50
41756;DHT22;27435;48.480;9.258;2022-10-16T14:18:31;25.70;62.40
41756;DHT22;27435;48.480;9.258;2022-10-16T14:21:05;25.80;62.70
41756;DHT22;27435;48.480;9.258;2022-10-16T14:23:38;25.90;62.90
41756;DHT22;27435;48.480;9.258;2022-10-16T14:28:39;25.70;67.50
41756;DHT22;27435;48.480;9.258;2022-10-16T14:31:28;25.40;65.20
41756;DHT22;27435;48.480;9.258;2022-10-16T14:33:54;25.20;65.90
41756;DHT22;27435;48.480;9.258;2022-10-16T14:36:20;24.90;67.40
41756;DHT22;27435;48.480;9.258;2022-10-16T14:38:59;24.50;68.50
41756;DHT22;27435;48.480;9.258;2022-10-16T14:41:26;24.20;70.10
41756;DHT22;27435;48.480;9.258;2022-10-16T14:43:57;24.00;70.60
41756;DHT22;27435;48.480;9.258;2022-10-16T14:46:35;23.90;72.50
41756;DHT22;27435;48.480;9.258;2022-10-16T14:49:22;23.90;75.80
41756;DHT22;27435;48.480;9.258;2022-10-16T14:51:48;23.90;77.60
41756;DHT22;27435;48.480;9.258;2022-10-16T14:54:16;23.80;79.50
41756;DHT22;27435;48.480;9.258;2022-10-16T14:56:54;23.70;79.80
41756;DHT22;27435;48.480;9.258;2022-10-16T15:01:52;23.80;81.00
41756;DHT22;27435;48.480;9.258;2022-10-16T15:04:17;23.70;80.50
41756;DHT22;27435;48.480;9.258;2022-10-16T15:06:44;23.70;78.50
41756;DHT22;27435;48.480;9.258;2022-10-16T15:09:09;23.70;78.00
41756;DHT22;27435;48.480;9.258;2022-10-16T15:11:35;23.90;77.60
41756;DHT22;27435;48.480;9.258;2022-10-16T15:14:01;24.10;77.40
41756;DHT22;27435;48.480;9.258;2022-10-16T15:16:27;24.10;77.50
41756;DHT22;27435;48.480;9.258;2022-10-16T15:18:52;24.00;77.70
41756;DHT22;27435;48.480;9.258;2022-10-16T15:21:30;23.90;78.60
41756;DHT22;27435;48.480;9.258;2022-10-16T15:23:57;23.80;78.90
41756;DHT22;27435;48.480;9.258;2022-10-16T15:26:27;23.60;79.60
41756;DHT22;27435;48.480;9.258;2022-10-16T15:28:53;23.60;80.40
41756;DHT22;27435;48.480;9.258;2022-10-16T15:31:19;23.50;81.20
41756;DHT22;27435;48.480;9.258;2022-10-16T15:33:50;23.60;80.30
41756;DHT22;27435;48.480;9.258;2022-10-16T15:36:28;23.90;80.00
41756;DHT22;27435;48.480;9.258;2022-10-16T15:38:54;24.00;78.60
41756;DHT22;27435;48.480;9.258;2022-10-16T15:41:20;24.00;79.60
41756;DHT22;27435;48.480;9.258;2022-10-16T15:43:48;23.80;80.40
41756;DHT22;27435;48.480;9.258;2022-10-16T15:46:18;23.70;80.60
41756;DHT22;27435;48.480;9.258;2022-10-16T15:48:44;23.80;80.00
41756;DHT22;27435;48.480;9.258;2022-10-16T15:51:10;23.70;79.90
41756;DHT22;27435;48.480;9.258;2022-10-16T15:53:36;23.60;79.40
41756;DHT22;27435;48.480;9.258;2022-10-16T15:56:05;23.50;80.20
41756;DHT22;27435;48.480;9.258;2022-10-16T15:58:32;23.70;79.40
41756;DHT22;27435;48.480;9.258;2022-10-16T16:00:58;23.80;79.70
41756;DHT22;27435;48.480;9.258;2022-10-16T16:03:27;23.70;79.40
41756;DHT22;27435;48.480;9.258;2022-10-16T16:05:53;23.30;81.10
41756;DHT22;27435;48.480;9.258;2022-10-16T16:08:19;23.10;82.20
41756;DHT22;27435;48.480;9.258;2022-10-16T16:10:44;22.70;82.70
41756;DHT22;27435;48.480;9.258;2022-10-16T16:13:10;22.30;83.30
41756;DHT22;27435;48.480;9.258;2022-10-16T16:15:39;22.10;84.30
41756;DHT22;27435;48.480;9.258;2022-10-16T16:18:06;21.70;85.60
41756;DHT22;27435;48.480;9.258;2022-10-16T16:20:32;21.40;86.80
41756;DHT22;27435;48.480;9.258;2022-10-16T16:22:57;21.10;88.10
41756;DHT22;27435;48.480;9.258;2022-10-16T16:25:23;20.90;89.40
41756;DHT22;27435;48.480;9.258;2022-10-16T16:27:49;20.70;90.10
41756;DHT22;27435;48.480;9.258;2022-10-16T16:30:15;20.50;91.20
41756;DHT22;27435;48.480;9.258;2022-10-16T16:32:40;20.30;91.50
41756;DHT22;27435;48.480;9.258;2022-10-16T16:35:06;20.20;91.80
41756;DHT22;27435;48.480;9.258;2022-10-16T16:37:31;19.80;92.90
41756;DHT22;27435;48.480;9.258;2022-10-16T16:39:57;19.60;93.80
41756;DHT22;27435;48.480;9.258;2022-10-16T16:42:27;19.40;95.20
41756;DHT22;27435;48.480;9.258;2022-10-16T16:44:53;19.30;96.00
41756;DHT22;27435;48.480;9.258;2022-10-16T16:47:19;19.00;96.10
41756;DHT22;27435;48.480;9.258;2022-10-16T16:49:44;18.80;96.80
41756;DHT22;27435;48.480;9.258;2022-10-16T16:52:12;18.70;97.20
41756;DHT22;27435;48.480;9.258;2022-10-16T16:54:37;18.60;96.80
41756;DHT22;27435;48.480;9.258;2022-10-16T16:57:03;18.60;97.00
41756;DHT22;27435;48.480;9.258;2022-10-16T16:59:29;18.50;96.90
41756;DHT22;27435;48.480;9.258;2022-10-16T17:01:58;18.40;96.60
41756;DHT22;27435;48.480;9.258;2022-10-16T17:04:25;18.50;95.80
41756;DHT22;27435;48.480;9.258;2022-10-16T17:06:53;18.50;95.70
41756;DHT22;27435;48.480;9.258;2022-10-16T17:09:20;18.40;96.40
41756;DHT22;27435;48.480;9.258;2022-10-16T17:11:46;18.30;96.60
41756;DHT22;27435;48.480;9.258;2022-10-16T17:14:14;18.20;96.20
41756;DHT22;27435;48.480;9.258;2022-10-16T17:16:41;18.10;96.40
41756;DHT22;27435;48.480;9.258;2022-10-16T17:19:15;18.10;96.40
41756;DHT22;27435;48.480;9.258;2022-10-16T17:21:41;18.10;96.50
41756;DHT22;27435;48.480;9.258;2022-10-16T17:24:07;18.00;96.80
41756;DHT22;27435;48.480;9.258;2022-10-16T17:26:33;17.90;97.20
41756;DHT22;27435;48.480;9.258;2022-10-16T17:29:03;17.90;97.20